CheckWX is a tool to help pilots better visualize weather data.  It is not intended as a substitute for an official pre-flight weather briefing.

17:39:10 UTC

KGNR METAR
Greenville Airport
Maine, USA
Current

43 mins ago

KGNR 211656Z AUTO 35008G17KT 21/19 A2968 RMK AO1 SLP044 T02110194
Observed
Jul-21 @ 16:56 UTC
Wind
  • 350° at 8 KTS
  • Gusting to 17 KTS
Visibility
Temperature
21°C / 70°F
Dewpoint
19°C / 66°F
Humidity
88%
Altimeter
29.68" Hg
Pressure
1005.12 hPa
Previous

2 hours ago

KGNR 211556Z AUTO 33012G17KT 22/20 A2965 RMK AO1 SLP033 P0006 T02170200
Observed
Jul-21 @ 15:56 UTC
Wind
  • 330° at 12 KTS
  • Gusting to 17 KTS
Visibility
Temperature
22°C / 72°F
Dewpoint
20°C / 68°F
Humidity
88%
Altimeter
29.65" Hg
Pressure
1004.02 hPa
Current Rain
0.06"
Previous

3 hours ago

KGNR 211456Z AUTO 33008KT 21/21 A2964 RMK AO1 SLP029 P0044 60058 T02110206 58006
Observed
Jul-21 @ 14:56 UTC
Wind
  • 330° at 8 KTS
Visibility
Temperature
21°C / 70°F
Dewpoint
21°C / 70°F
Humidity
100%
Altimeter
29.64" Hg
Pressure
1003.72 hPa
Current Rain
0.44"